createdAt,value
2023-01-17T00:02:08.156Z,96618.00
2023-01-17T00:04:54.112Z,96613.69
2023-01-17T00:07:42.088Z,96619.69
2023-01-17T00:10:14.224Z,96629.03
2023-01-17T00:12:48.228Z,96622.19
2023-01-17T00:15:22.913Z,96628.19
2023-01-17T00:17:52.212Z,96631.59
2023-01-17T00:20:41.384Z,96629.03
2023-01-17T00:23:32.477Z,96622.97
2023-01-17T00:26:06.845Z,96634.94
2023-01-17T00:28:36.720Z,96642.63
2023-01-17T00:31:07.432Z,96637.47
2023-01-17T00:33:35.149Z,96641.72
2023-01-17T00:36:04.407Z,96635.75
2023-01-17T00:38:34.087Z,96636.63
2023-01-17T00:41:06.359Z,96654.59
2023-01-17T00:43:52.592Z,96659.72
2023-01-17T00:46:40.904Z,96673.38
2023-01-17T00:49:27.029Z,96671.59
2023-01-17T00:52:13.117Z,96673.25
2023-01-17T00:54:59.244Z,96683.53
2023-01-17T00:57:45.377Z,96688.66
2023-01-17T01:00:32.357Z,96684.41
2023-01-17T01:03:19.840Z,96680.94
2023-01-17T01:06:05.473Z,96698.00
2023-01-17T01:08:52.043Z,96697.97
2023-01-17T01:11:39.655Z,96707.34
2023-01-17T01:14:27.331Z,96701.34
2023-01-17T01:17:13.325Z,96717.63
2023-01-17T01:20:00.694Z,96718.44
2023-01-17T01:22:46.741Z,96720.16
2023-01-17T01:25:32.717Z,96730.41
2023-01-17T01:28:24.289Z,96732.09
2023-01-17T01:31:10.445Z,96742.34
2023-01-17T01:33:39.114Z,96752.56
2023-01-17T01:36:11.116Z,96753.44
2023-01-17T01:38:39.611Z,96761.16
2023-01-17T01:41:08.182Z,96763.69
2023-01-17T01:43:48.018Z,96769.63
2023-01-17T01:46:21.455Z,96780.66
2023-01-17T01:48:54.713Z,96776.34
2023-01-17T01:51:32.899Z,96793.41
2023-01-17T01:54:16.612Z,96796.78
2023-01-17T01:56:47.195Z,96797.56
2023-01-17T01:59:19.445Z,96804.41
2023-01-17T02:01:48.952Z,96812.88
2023-01-17T02:04:17.795Z,96810.22
2023-01-17T02:06:53.133Z,96816.22
2023-01-17T02:09:21.977Z,96824.75
2023-01-17T02:11:50.948Z,96826.44
2023-01-17T02:14:22.409Z,96831.59
2023-01-17T02:17:10.758Z,96832.44
2023-01-17T02:20:08.309Z,96830.69
2023-01-17T02:23:38.291Z,96838.38
2023-01-17T02:26:49.292Z,96847.75
2023-01-17T02:30:15.488Z,96858.84
2023-01-17T02:32:57.412Z,96863.97
2023-01-17T02:35:35.530Z,96857.19
2023-01-17T02:38:18.591Z,96860.59
2023-01-17T02:40:51.424Z,96856.22
2023-01-17T02:43:21.395Z,96865.53
2023-01-17T02:45:49.799Z,96857.81
2023-01-17T02:48:26.227Z,96867.22
2023-01-17T02:51:39.886Z,96880.88
2023-01-17T02:55:05.746Z,96902.16
2023-01-17T02:57:59.558Z,96907.13
2023-01-17T03:00:38.916Z,96905.25
2023-01-17T03:03:16.762Z,96924.66
2023-01-17T03:05:51.528Z,96930.53
2023-01-17T03:08:20.516Z,96938.06
2023-01-17T03:10:48.990Z,96955.06
2023-01-17T03:13:17.867Z,96960.09
2023-01-17T03:15:47.178Z,96950.63
2023-01-17T03:18:17.404Z,96960.72
2023-01-17T03:20:47.208Z,96976.00
2023-01-17T03:23:15.669Z,96970.69
2023-01-17T03:25:44.526Z,96970.59
2023-01-17T03:28:12.911Z,96980.75
2023-01-17T03:30:41.377Z,96985.00
2023-01-17T03:33:09.967Z,96987.56
2023-01-17T03:35:38.378Z,96982.47
2023-01-17T03:38:08.666Z,96992.78
2023-01-17T03:40:37.317Z,96991.91
2023-01-17T03:43:06.476Z,96993.69
2023-01-17T03:45:35.558Z,96991.13
2023-01-17T03:48:04.152Z,97007.44
2023-01-17T03:50:32.738Z,97010.84
2023-01-17T03:53:01.270Z,97012.47
2023-01-17T03:55:31.348Z,97011.66
2023-01-17T03:57:59.882Z,97018.56
2023-01-17T04:00:28.789Z,97016.00
2023-01-17T04:02:57.174Z,97022.03
2023-01-17T04:05:25.739Z,97030.59
2023-01-17T04:07:54.273Z,97030.69
2023-01-17T04:10:22.790Z,97024.84
2023-01-17T04:12:52.603Z,97042.03
2023-01-17T04:15:21.415Z,97034.38
2023-01-17T04:17:49.811Z,97031.78
2023-01-17T04:20:29.316Z,97035.19
2023-01-17T04:22:57.828Z,97032.63
2023-01-17T04:25:26.577Z,97031.78
2023-01-17T04:27:56.630Z,97042.03
2023-01-17T04:30:25.281Z,97035.19
2023-01-17T04:32:53.787Z,97039.44
2023-01-17T04:35:22.457Z,97031.75
2023-01-17T04:37:51.138Z,97036.91
2023-01-17T04:40:19.793Z,97035.28
2023-01-17T04:42:49.120Z,97042.19
2023-01-17T04:45:19.966Z,97046.53
2023-01-17T04:47:48.454Z,97049.19
2023-01-17T04:50:17.013Z,97044.09
2023-01-17T04:52:45.822Z,97054.41
2023-01-17T04:55:14.359Z,97054.44
2023-01-17T04:57:42.928Z,97051.09
2023-01-17T05:00:12.918Z,97049.47
2023-01-17T05:02:45.961Z,97048.63
2023-01-17T05:05:14.530Z,97050.31
2023-01-17T05:07:43.018Z,97049.50
2023-01-17T05:10:12.665Z,97056.31
2023-01-17T05:12:41.149Z,97063.16
2023-01-17T05:15:10.488Z,97057.16
2023-01-17T05:17:39.025Z,97061.38
2023-01-17T05:20:11.726Z,97072.47
2023-01-17T05:22:40.183Z,97081.00
2023-01-17T05:25:09.924Z,97079.25
2023-01-17T05:27:38.912Z,97080.13
2023-01-17T05:30:09.247Z,97084.38
2023-01-17T05:32:37.763Z,97087.81
2023-01-17T05:35:09.427Z,97085.25
2023-01-17T05:37:37.898Z,97093.00
2023-01-17T05:40:09.739Z,97090.47
2023-01-17T05:42:38.185Z,97096.44
2023-01-17T05:45:09.920Z,97099.03
2023-01-17T05:47:38.375Z,97099.88
2023-01-17T05:50:09.895Z,97108.50
2023-01-17T05:52:38.323Z,97112.69
2023-01-17T05:55:07.981Z,97118.63
2023-01-17T05:57:36.623Z,97116.00
2023-01-17T06:00:07.061Z,97126.22
2023-01-17T06:02:35.524Z,97129.72
2023-01-17T06:05:04.708Z,97134.75
2023-01-17T06:07:34.718Z,97145.88
2023-01-17T06:10:03.120Z,97128.81
2023-01-17T06:12:32.237Z,97143.31
2023-01-17T06:15:00.717Z,97140.75
2023-01-17T06:17:29.215Z,97132.19
2023-01-17T06:19:57.604Z,97142.47
2023-01-17T06:22:26.078Z,97141.66
2023-01-17T06:24:55.904Z,97145.03
2023-01-17T06:27:24.339Z,97145.88
2023-01-17T06:29:52.666Z,97149.28
2023-01-17T06:32:21.163Z,97151.09
2023-01-17T06:34:49.567Z,97156.22
2023-01-17T06:37:18.046Z,97155.38
2023-01-17T06:39:46.650Z,97168.25
2023-01-17T06:42:16.692Z,97166.59
2023-01-17T06:44:45.544Z,97162.25
2023-01-17T06:47:13.876Z,97176.75
2023-01-17T06:49:42.298Z,97181.00
2023-01-17T06:52:10.643Z,97180.16
2023-01-17T06:54:38.990Z,97187.00
2023-01-17T06:57:07.327Z,97186.13
2023-01-17T06:59:37.162Z,97191.25
2023-01-17T07:02:05.560Z,97192.19
2023-01-17T07:04:36.069Z,97189.63
2023-01-17T07:07:04.433Z,97189.63
2023-01-17T07:09:32.771Z,97189.63
2023-01-17T07:12:02.049Z,97195.63
2023-01-17T07:14:30.735Z,97192.13
2023-01-17T07:17:00.643Z,97193.00
2023-01-17T07:19:28.974Z,97192.97
2023-01-17T07:21:57.504Z,97198.13
2023-01-17T07:24:25.970Z,97199.81
2023-01-17T07:26:54.427Z,97198.94
2023-01-17T07:29:22.880Z,97207.50
2023-01-17T07:31:53.880Z,97203.19
2023-01-17T07:34:23.881Z,97201.50
2023-01-17T07:36:54.434Z,97208.34
2023-01-17T07:39:22.923Z,97212.63
2023-01-17T07:41:51.364Z,97209.19
2023-01-17T07:44:21.005Z,97197.19
2023-01-17T07:46:49.450Z,97204.03
2023-01-17T07:49:17.816Z,97208.31
2023-01-17T07:51:48.034Z,97208.31
2023-01-17T07:54:16.723Z,97210.78
2023-01-17T07:56:47.153Z,97208.22
2023-01-17T07:59:16.117Z,97209.03
2023-01-17T08:01:44.787Z,97204.78
2023-01-17T08:04:14.184Z,97208.94
2023-01-17T08:06:48.810Z,97206.34
2023-01-17T08:09:17.310Z,97206.34
2023-01-17T08:11:45.806Z,97202.94
2023-01-17T08:14:14.173Z,97208.94
2023-01-17T08:16:42.807Z,97210.69
2023-01-17T08:19:11.464Z,97209.81
2023-01-17T08:21:40.639Z,97204.69
2023-01-17T08:24:15.143Z,97204.75
2023-01-17T08:26:43.877Z,97209.00
2023-01-17T08:29:14.888Z,97204.75
2023-01-17T08:31:43.501Z,97202.16
2023-01-17T08:34:14.112Z,97199.66
2023-01-17T08:36:44.105Z,97198.81
2023-01-17T08:39:14.039Z,97197.97
2023-01-17T08:41:42.510Z,97207.34
2023-01-17T08:44:11.208Z,97215.91
2023-01-17T08:46:40.951Z,97212.47
2023-01-17T08:49:12.345Z,97208.22
2023-01-17T08:51:42.016Z,97222.72
2023-01-17T08:54:15.290Z,97232.09
2023-01-17T08:56:44.119Z,97231.28
2023-01-17T08:59:13.527Z,97234.72
2023-01-17T09:01:42.219Z,97234.75
2023-01-17T09:04:11.353Z,97234.75
2023-01-17T09:06:42.465Z,97237.38
2023-01-17T09:09:11.760Z,97230.56
2023-01-17T09:11:41.887Z,97228.00
2023-01-17T09:14:13.505Z,97230.56
2023-01-17T09:16:42.035Z,97219.53
2023-01-17T09:19:11.256Z,97226.41
2023-01-17T09:21:39.793Z,97227.28
2023-01-17T09:24:08.593Z,97234.19
2023-01-17T09:26:37.255Z,97234.16
2023-01-17T09:29:07.245Z,97238.47
2023-01-17T09:31:35.704Z,97246.97
2023-01-17T09:34:04.126Z,97248.66
2023-01-17T09:36:34.051Z,97257.16
2023-01-17T09:39:03.883Z,97257.22
2023-01-17T09:41:34.552Z,97251.28
2023-01-17T09:44:10.677Z,97256.44
2023-01-17T09:46:43.111Z,97251.28
2023-01-17T09:49:24.102Z,97248.72
2023-01-17T09:51:54.470Z,97246.16
2023-01-17T09:54:26.039Z,97248.66
2023-01-17T09:57:02.585Z,97246.16
2023-01-17T09:59:45.787Z,97248.75
2023-01-17T10:02:36.730Z,97253.00
2023-01-17T10:05:36.785Z,97256.41
2023-01-17T10:08:18.503Z,97259.84
2023-01-17T10:10:59.975Z,97249.53
2023-01-17T10:13:41.540Z,97255.56
2023-01-17T10:16:28.857Z,97256.47
2023-01-17T10:19:31.389Z,97260.81
2023-01-17T10:22:20.585Z,97255.72
2023-01-17T10:25:18.155Z,97258.31
2023-01-17T10:27:55.573Z,97250.69
2023-01-17T10:30:29.464Z,97259.31
2023-01-17T10:33:02.427Z,97256.75
2023-01-17T10:35:38.139Z,97259.41
2023-01-17T10:38:13.216Z,97255.16
2023-01-17T10:40:46.277Z,97249.16
2023-01-17T10:43:21.973Z,97249.16
2023-01-17T10:45:54.492Z,97256.03
2023-01-17T10:48:37.982Z,97249.16
2023-01-17T10:51:20.648Z,97253.47
2023-01-17T10:54:07.651Z,97248.34
2023-01-17T10:56:37.699Z,97254.34
2023-01-17T10:59:19.560Z,97253.56
2023-01-17T11:01:50.363Z,97257.00
2023-01-17T11:04:23.847Z,97245.88
2023-01-17T11:07:13.298Z,97244.19
2023-01-17T11:09:44.587Z,97238.19
2023-01-17T11:12:27.799Z,97238.19
2023-01-17T11:15:03.933Z,97244.25
2023-01-17T11:17:33.792Z,97237.38
2023-01-17T11:20:23.511Z,97232.38
2023-01-17T11:23:08.210Z,97241.81
2023-01-17T11:25:36.840Z,97233.31
2023-01-17T11:28:08.504Z,97239.34
2023-01-17T11:30:36.943Z,97231.72
2023-01-17T11:33:12.052Z,97238.56
2023-01-17T11:35:46.430Z,97238.63
2023-01-17T11:38:20.141Z,97243.84
2023-01-17T11:40:50.547Z,97238.78
2023-01-17T11:43:25.590Z,97244.00
2023-01-17T11:46:07.477Z,97240.59
2023-01-17T11:48:39.381Z,97239.75
2023-01-17T11:51:26.260Z,97236.34
2023-01-17T11:53:58.154Z,97236.34
2023-01-17T11:56:34.318Z,97226.84
2023-01-17T11:59:24.821Z,97227.69
2023-01-17T12:02:43.758Z,97225.91
2023-01-17T12:05:30.524Z,97231.91
2023-01-17T12:08:14.092Z,97220.78
2023-01-17T12:10:54.158Z,97219.09
2023-01-17T12:14:05.680Z,97212.31
2023-01-17T12:16:55.460Z,97208.91
2023-01-17T12:19:41.321Z,97205.53
2023-01-17T12:22:25.376Z,97208.97
2023-01-17T12:25:40.162Z,97203.88
2023-01-17T12:28:26.471Z,97202.22
2023-01-17T12:31:15.769Z,97199.66
2023-01-17T12:33:52.948Z,97200.56
2023-01-17T12:36:43.214Z,97202.34
2023-01-17T12:39:14.425Z,97203.19
2023-01-17T12:41:59.328Z,97200.66
2023-01-17T12:44:42.820Z,97199.75
2023-01-17T12:47:12.836Z,97201.41
2023-01-17T12:49:48.674Z,97203.19
2023-01-17T12:52:26.460Z,97206.66
2023-01-17T12:54:59.345Z,97203.28
2023-01-17T12:57:35.088Z,97206.81
2023-01-17T13:00:09.463Z,97212.84
2023-01-17T13:02:42.842Z,97198.34
2023-01-17T13:05:18.224Z,97191.53
2023-01-17T13:07:56.533Z,97195.84
2023-01-17T13:10:35.392Z,97196.72
2023-01-17T13:13:20.105Z,97206.13
2023-01-17T13:15:51.284Z,97206.13
2023-01-17T13:18:25.652Z,97203.63
2023-01-17T13:21:19.925Z,97211.44
2023-01-17T13:24:10.139Z,97197.78
2023-01-17T13:27:28.154Z,97204.66
2023-01-17T13:30:19.649Z,97204.69
2023-01-17T13:33:19.928Z,97203.91
2023-01-17T13:36:02.135Z,97212.53
2023-01-17T13:38:55.900Z,97210.88
2023-01-17T13:41:47.108Z,97207.53
2023-01-17T13:44:22.897Z,97201.59
2023-01-17T13:47:02.534Z,97204.22
2023-01-17T13:49:45.138Z,97203.34
2023-01-17T13:52:33.582Z,97194.81
2023-01-17T13:55:04.518Z,97206.81
2023-01-17T13:57:43.616Z,97207.72
2023-01-17T14:00:49.225Z,97209.41
2023-01-17T14:04:04.189Z,97221.38
2023-01-17T14:06:40.662Z,97219.66
2023-01-17T14:09:24.843Z,97217.09
2023-01-17T14:12:07.667Z,97210.22
2023-01-17T14:14:53.580Z,97221.31
2023-01-17T14:17:59.799Z,97224.75
2023-01-17T14:20:53.203Z,97224.75
2023-01-17T14:23:51.894Z,97221.28
2023-01-17T14:26:49.739Z,97224.66
2023-01-17T14:30:03.691Z,97222.00
2023-01-17T14:32:36.297Z,97215.09
2023-01-17T14:35:06.724Z,97219.41
2023-01-17T14:37:44.440Z,97219.41
2023-01-17T14:40:26.033Z,97224.53
2023-01-17T14:43:01.639Z,97221.09
2023-01-17T14:45:32.925Z,97233.03
2023-01-17T14:48:03.636Z,97229.53
2023-01-17T14:50:38.076Z,97233.84
2023-01-17T14:53:19.892Z,97234.69
2023-01-17T14:55:55.135Z,97228.66
2023-01-17T14:58:27.021Z,97226.94
2023-01-17T15:01:01.077Z,97232.03
2023-01-17T15:03:32.077Z,97231.16
2023-01-17T15:06:12.273Z,97230.28
2023-01-17T15:08:42.347Z,97222.53
2023-01-17T15:11:18.875Z,97227.69
2023-01-17T15:13:51.603Z,97228.50
2023-01-17T15:16:23.594Z,97225.88
2023-01-17T15:18:53.754Z,97228.41
2023-01-17T15:21:25.354Z,97226.72
2023-01-17T15:23:58.760Z,97230.09
2023-01-17T15:26:30.099Z,97225.75
2023-01-17T15:29:06.743Z,97236.03
2023-01-17T15:31:47.122Z,97235.09
2023-01-17T15:34:34.833Z,97234.19
2023-01-17T15:37:07.989Z,97235.84
2023-01-17T15:39:40.859Z,97240.97
2023-01-17T15:42:23.224Z,97235.81
2023-01-17T15:44:55.920Z,97251.16
2023-01-17T15:47:34.283Z,97240.84
2023-01-17T15:50:22.306Z,97241.63
2023-01-17T15:52:51.745Z,97249.28
2023-01-17T15:55:27.564Z,97241.56
2023-01-17T15:57:56.463Z,97235.47
2023-01-17T16:00:32.686Z,97238.03
2023-01-17T16:03:01.376Z,97244.84
2023-01-17T16:05:42.129Z,97241.38
2023-01-17T16:08:33.448Z,97249.03
2023-01-17T16:11:06.354Z,97247.28
2023-01-17T16:13:37.842Z,97252.38
2023-01-17T16:16:21.338Z,97246.31
2023-01-17T16:18:52.712Z,97248.00
2023-01-17T16:21:29.260Z,97252.25
2023-01-17T16:23:58.524Z,97246.19
2023-01-17T16:26:29.322Z,97246.19
2023-01-17T16:28:58.172Z,97257.28
2023-01-17T16:31:27.188Z,97258.94
2023-01-17T16:33:56.087Z,97248.66
2023-01-17T16:36:24.573Z,97259.78
2023-01-17T16:38:53.424Z,97261.41
2023-01-17T16:41:22.402Z,97265.72
2023-01-17T16:44:07.295Z,97263.97
2023-01-17T16:46:38.470Z,97268.13
2023-01-17T16:49:07.751Z,97278.38
2023-01-17T16:51:36.301Z,97282.63
2023-01-17T16:54:04.876Z,97286.91
2023-01-17T16:56:33.476Z,97285.94
2023-01-17T16:59:01.830Z,97285.06
2023-01-17T17:01:31.780Z,97297.88
2023-01-17T17:04:00.613Z,97293.56
2023-01-17T17:06:29.163Z,97292.66
2023-01-17T17:08:59.947Z,97297.75
2023-01-17T17:11:28.695Z,97302.84
2023-01-17T17:13:57.080Z,97294.22
2023-01-17T17:16:29.958Z,97304.50
2023-01-17T17:19:05.757Z,97301.88
2023-01-17T17:21:37.646Z,97307.81
2023-01-17T17:24:06.864Z,97313.75
2023-01-17T17:26:37.370Z,97310.28
2023-01-17T17:29:07.057Z,97312.84
2023-01-17T17:31:35.613Z,97304.28
2023-01-17T17:34:07.990Z,97309.41
2023-01-17T17:36:37.623Z,97318.78
2023-01-17T17:39:09.184Z,97317.91
2023-01-17T17:41:41.353Z,97314.41
2023-01-17T17:44:10.003Z,97311.00
2023-01-17T17:46:39.102Z,97307.56
2023-01-17T17:49:09.795Z,97315.22
2023-01-17T17:51:40.538Z,97320.25
2023-01-17T17:54:12.461Z,97319.38
2023-01-17T17:56:42.337Z,97326.19
2023-01-17T17:59:12.633Z,97323.56
2023-01-17T18:01:41.263Z,97319.28
2023-01-17T18:04:12.339Z,97332.97
2023-01-17T18:06:41.162Z,97337.16
2023-01-17T18:09:11.950Z,97335.44
2023-01-17T18:11:42.861Z,97339.66
2023-01-17T18:14:15.521Z,97341.34
2023-01-17T18:16:45.676Z,97344.69
2023-01-17T18:19:18.452Z,97348.09
2023-01-17T18:21:48.618Z,97355.72
2023-01-17T18:24:19.999Z,97360.84
2023-01-17T18:26:51.105Z,97359.91
2023-01-17T18:29:22.198Z,97358.19
2023-01-17T18:31:52.905Z,97367.56
2023-01-17T18:34:27.009Z,97356.44
2023-01-17T18:36:55.723Z,97364.03
2023-01-17T18:39:27.139Z,97370.88
2023-01-17T18:41:56.372Z,97369.13
2023-01-17T18:44:25.067Z,97375.94
2023-01-17T18:46:55.566Z,97378.50
2023-01-17T18:49:25.577Z,97381.88
2023-01-17T18:51:54.068Z,97385.25
2023-01-17T18:54:23.005Z,97386.06
2023-01-17T18:56:52.597Z,97392.91
2023-01-17T18:59:23.383Z,97394.63
2023-01-17T19:01:52.244Z,97395.44
2023-01-17T19:04:21.584Z,97389.44
2023-01-17T19:06:51.639Z,97391.91
2023-01-17T19:09:20.215Z,97394.34
2023-01-17T19:11:49.022Z,97393.34
2023-01-17T19:14:17.416Z,97386.41
2023-01-17T19:16:46.113Z,97394.91
2023-01-17T19:19:16.802Z,97395.72
2023-01-17T19:21:45.642Z,97385.44
2023-01-17T19:24:15.688Z,97384.56
2023-01-17T19:26:45.563Z,97389.66
2023-01-17T19:29:14.540Z,97392.22
2023-01-17T19:31:43.840Z,97398.22
2023-01-17T19:34:14.888Z,97402.47
2023-01-17T19:36:43.620Z,97407.56
2023-01-17T19:39:12.230Z,97407.59
2023-01-17T19:41:46.289Z,97405.03
2023-01-17T19:44:16.214Z,97406.75
2023-01-17T19:46:46.122Z,97411.81
2023-01-17T19:49:16.364Z,97412.69
2023-01-17T19:51:44.928Z,97422.06
2023-01-17T19:54:15.215Z,97424.63
2023-01-17T19:56:45.153Z,97421.16
2023-01-17T19:59:14.034Z,97423.72
2023-01-17T20:01:42.854Z,97419.41
2023-01-17T20:04:12.674Z,97419.41
2023-01-17T20:06:41.376Z,97425.34
2023-01-17T20:09:09.851Z,97425.31
2023-01-17T20:11:38.597Z,97432.13
2023-01-17T20:14:08.568Z,97438.06
2023-01-17T20:16:37.941Z,97435.50
2023-01-17T20:19:06.884Z,97433.75
2023-01-17T20:21:35.316Z,97438.06
2023-01-17T20:24:04.416Z,97440.56
2023-01-17T20:26:36.085Z,97447.38
2023-01-17T20:29:10.570Z,97443.94
2023-01-17T20:31:40.955Z,97439.63
2023-01-17T20:34:11.643Z,97446.44
2023-01-17T20:36:41.989Z,97443.81
2023-01-17T20:39:12.594Z,97456.63
2023-01-17T20:41:43.606Z,97460.88
2023-01-17T20:44:16.501Z,97459.19
2023-01-17T20:46:46.458Z,97462.47
2023-01-17T20:49:18.980Z,97467.59
2023-01-17T20:51:48.012Z,97461.50
2023-01-17T20:54:18.551Z,97464.06
2023-01-17T20:56:48.210Z,97464.88
2023-01-17T20:59:21.690Z,97468.25
2023-01-17T21:01:50.498Z,97469.06
2023-01-17T21:04:25.503Z,97472.44
2023-01-17T21:06:54.664Z,97471.56
2023-01-17T21:09:23.262Z,97472.41
2023-01-17T21:11:52.145Z,97468.91
2023-01-17T21:14:23.061Z,97485.16
2023-01-17T21:16:51.686Z,97485.09
2023-01-17T21:19:20.556Z,97485.91
2023-01-17T21:21:53.571Z,97487.59
2023-01-17T21:24:22.180Z,97494.44
2023-01-17T21:26:52.382Z,97484.16
2023-01-17T21:29:25.669Z,97489.28
2023-01-17T21:31:54.046Z,97491.81
2023-01-17T21:34:25.284Z,97488.31
2023-01-17T21:36:53.976Z,97495.13
2023-01-17T21:39:22.539Z,97486.56
2023-01-17T21:41:51.408Z,97493.38
2023-01-17T21:44:23.229Z,97485.72
2023-01-17T21:46:56.171Z,97486.56
2023-01-17T21:49:25.233Z,97503.59
2023-01-17T21:52:07.648Z,97495.84
2023-01-17T21:54:53.955Z,97500.03
2023-01-17T21:57:40.892Z,97512.84
2023-01-17T22:00:14.728Z,97501.59
2023-01-17T22:02:47.504Z,97513.50
2023-01-17T22:05:18.547Z,97511.78
2023-01-17T22:08:01.037Z,97518.56
2023-01-17T22:10:30.214Z,97514.31
2023-01-17T22:12:58.826Z,97516.81
2023-01-17T22:15:28.730Z,97509.13
2023-01-17T22:17:58.038Z,97515.06
2023-01-17T22:20:26.976Z,97519.31
2023-01-17T22:22:55.787Z,97520.13
2023-01-17T22:25:24.590Z,97532.91
2023-01-17T22:27:53.225Z,97533.75
2023-01-17T22:30:22.005Z,97525.16
2023-01-17T22:32:52.161Z,97522.59
2023-01-17T22:35:20.662Z,97530.25
2023-01-17T22:37:49.205Z,97525.03
2023-01-17T22:40:18.137Z,97527.56
2023-01-17T22:42:46.647Z,97531.81
2023-01-17T22:45:17.311Z,97527.56
2023-01-17T22:47:45.783Z,97529.25
2023-01-17T22:50:15.605Z,97530.94
2023-01-17T22:52:44.043Z,97529.13
2023-01-17T22:55:13.131Z,97534.22
2023-01-17T22:57:41.545Z,97537.59
2023-01-17T23:00:14.507Z,97532.47
2023-01-17T23:02:43.753Z,97524.78
2023-01-17T23:05:12.747Z,97525.59
2023-01-17T23:07:46.477Z,97534.97
2023-01-17T23:10:38.023Z,97530.66
2023-01-17T23:13:10.343Z,97538.28
2023-01-17T23:15:57.422Z,97527.19
2023-01-17T23:18:43.551Z,97525.25
2023-01-17T23:21:12.198Z,97528.69
2023-01-17T23:23:42.094Z,97532.09
2023-01-17T23:26:10.456Z,97532.09
2023-01-17T23:28:37.986Z,97523.50
2023-01-17T23:31:08.544Z,97528.63
2023-01-17T23:33:37.049Z,97532.84
2023-01-17T23:36:09.308Z,97533.66
2023-01-17T23:38:40.587Z,97536.22
2023-01-17T23:41:28.294Z,97527.69
2023-01-17T23:43:58.952Z,97534.44
2023-01-17T23:46:30.154Z,97531.84
2023-01-17T23:48:58.815Z,97533.53
2023-01-17T23:51:27.170Z,97536.88
2023-01-17T23:54:05.244Z,97535.13
2023-01-17T23:56:35.145Z,97536.81
2023-01-17T23:59:04.605Z,97536.72
